Time;durP1;ratioP1;P1;durP2;ratioP2;P2;SDS_P1;SDS_P2;PMS_P1;PMS_P2;Temp;Humidity;BMP_temperature;BMP_pressure;BME280_temperature;BME280_humidity;BME280_pressure;Samples;Min_cycle;Max_cycle;Signal;HPM_P1;HPM_P2
2023/12/07 00:04:56;;;;;;;35.60;25.50;;;22.60;54.80;;;;;;222391;1266;22515;-50
2023/12/07 00:10:00;;;;;;;33.60;26.10;;;22.70;54.80;;;;;;222557;1263;22511;-46
2023/12/07 00:15:06;;;;;;;34.40;26.40;;;22.90;54.80;;;;;;222548;1261;22526;-50
2023/12/07 00:20:10;;;;;;;32.60;26.30;;;22.90;54.10;;;;;;222642;1263;26631;-51
2023/12/07 00:25:15;;;;;;;32.50;26.10;;;23.00;53.50;;;;;;222984;1261;22510;-52
2023/12/07 00:30:20;;;;;;;33.00;25.90;;;23.00;53.80;;;;;;222467;1268;22642;-47
2023/12/07 00:35:28;;;;;;;31.20;24.20;;;23.00;53.20;;;;;;222292;1266;22507;-46
2023/12/07 00:40:36;;;;;;;30.70;25.20;;;23.00;53.20;;;;;;222621;1255;24193;-47
2023/12/07 00:45:41;;;;;;;31.90;25.50;;;23.00;53.10;;;;;;222711;1264;22647;-47
2023/12/07 00:50:45;;;;;;;32.00;25.00;;;23.00;53.40;;;;;;222389;1264;22637;-48
2023/12/07 00:55:49;;;;;;;32.20;24.70;;;23.00;52.90;;;;;;222354;1263;22515;-49
2023/12/07 01:00:54;;;;;;;29.20;23.70;;;23.00;52.80;;;;;;222679;1266;22637;-49
2023/12/07 01:05:58;;;;;;;29.20;24.70;;;23.00;52.80;;;;;;222837;1262;22654;-47
2023/12/07 01:11:04;;;;;;;28.10;23.80;;;22.90;52.70;;;;;;222923;1263;22638;-47
2023/12/07 01:16:08;;;;;;;29.40;23.30;;;22.90;52.70;;;;;;222650;1263;24411;-47
2023/12/07 01:21:14;;;;;;;30.80;23.70;;;22.90;52.70;;;;;;222520;1259;22789;-51
2023/12/07 01:26:19;;;;;;;27.20;22.80;;;22.80;52.60;;;;;;222663;1264;22546;-47
2023/12/07 01:31:23;;;;;;;28.60;23.30;;;22.80;53.30;;;;;;222547;1269;24221;-52
2023/12/07 01:36:28;;;;;;;27.70;23.20;;;22.70;52.90;;;;;;222366;1266;25254;-50
2023/12/07 01:41:32;;;;;;;30.60;23.50;;;22.70;52.50;;;;;;222244;1268;22604;-48
2023/12/07 01:46:36;;;;;;;28.80;22.40;;;22.70;53.10;;;;;;222381;1263;22727;-51
2023/12/07 01:51:43;;;;;;;29.50;22.60;;;22.70;52.70;;;;;;222109;1263;22564;-50
2023/12/07 01:56:47;;;;;;;27.20;21.80;;;22.70;53.10;;;;;;222420;1254;25300;-51
2023/12/07 02:01:52;;;;;;;27.10;22.60;;;22.80;52.90;;;;;;222001;1263;23919;-49
2023/12/07 02:06:58;;;;;;;26.20;21.80;;;23.00;52.80;;;;;;222126;1253;22524;-48
2023/12/07 02:12:03;;;;;;;25.50;22.30;;;23.00;52.80;;;;;;222239;1254;22640;-49
2023/12/07 02:17:18;;;;;;;26.40;22.70;;;23.10;52.20;;;;;;222752;1254;22525;-50
2023/12/07 02:22:32;;;;;;;25.90;22.00;;;23.00;52.50;;;;;;222392;1254;24301;-49
2023/12/07 02:27:41;;;;;;;27.00;21.60;;;23.00;52.20;;;;;;222720;1266;22535;-47
2023/12/07 02:32:46;;;;;;;24.60;21.60;;;22.90;52.00;;;;;;222600;1266;25385;-48
2023/12/07 02:37:53;;;;;;;24.90;21.70;;;23.00;52.10;;;;;;222749;1266;25654;-47
2023/12/07 02:42:59;;;;;;;26.10;21.50;;;23.00;51.90;;;;;;222617;1253;22520;-51
2023/12/07 02:48:04;;;;;;;26.50;21.70;;;23.00;51.90;;;;;;222761;1263;25354;-50
2023/12/07 02:53:08;;;;;;;25.70;21.10;;;22.90;51.90;;;;;;222939;1255;25223;-53
2023/12/07 02:58:13;;;;;;;29.30;21.30;;;22.90;52.00;;;;;;222746;1257;23920;-48
2023/12/07 03:03:17;;;;;;;23.90;19.70;;;22.80;52.00;;;;;;222569;1266;24382;-51
2023/12/07 03:08:22;;;;;;;22.80;20.30;;;22.80;52.20;;;;;;222703;1266;26319;-46
2023/12/07 03:13:26;;;;;;;23.20;19.80;;;22.80;52.30;;;;;;222729;1265;22664;-56
2023/12/07 03:18:31;;;;;;;23.60;21.10;;;22.70;52.20;;;;;;222691;1263;24216;-51
2023/12/07 03:23:36;;;;;;;22.30;19.80;;;22.70;51.90;;;;;;222815;1253;22527;-52
2023/12/07 03:28:40;;;;;;;22.20;19.30;;;22.70;52.20;;;;;;222468;1256;22520;-51
2023/12/07 03:33:44;;;;;;;24.40;20.60;;;22.80;52.30;;;;;;222258;1264;22643;-48
2023/12/07 03:38:49;;;;;;;23.30;20.30;;;22.90;52.00;;;;;;222205;1256;23161;-47
2023/12/07 03:43:53;;;;;;;21.30;18.80;;;23.00;51.90;;;;;;222315;1263;24000;-48
2023/12/07 03:48:59;;;;;;;23.20;19.20;;;23.00;51.60;;;;;;222225;1261;24213;-51
2023/12/07 03:54:05;;;;;;;21.30;19.20;;;23.10;51.50;;;;;;222407;1261;22537;-49
2023/12/07 03:59:10;;;;;;;21.60;19.10;;;23.10;51.30;;;;;;222686;1266;22640;-51
2023/12/07 04:04:14;;;;;;;23.40;19.90;;;23.00;51.60;;;;;;222320;1266;22519;-48
2023/12/07 04:09:19;;;;;;;21.90;19.60;;;22.90;51.70;;;;;;222316;1263;24210;-46
2023/12/07 04:14:24;;;;;;;22.80;19.00;;;22.90;51.50;;;;;;222297;1258;24186;-51
2023/12/07 04:19:28;;;;;;;21.20;19.00;;;22.90;51.50;;;;;;222234;1259;22510;-50
2023/12/07 04:24:33;;;;;;;22.60;19.70;;;22.90;51.80;;;;;;222348;1268;22521;-47
2023/12/07 04:29:37;;;;;;;24.00;19.50;;;22.90;52.10;;;;;;222450;1263;23056;-49
2023/12/07 04:34:42;;;;;;;21.00;18.80;;;22.90;51.60;;;;;;222453;1259;25420;-51
2023/12/07 04:39:46;;;;;;;21.00;18.40;;;22.90;51.40;;;;;;222383;1263;22519;-48
2023/12/07 04:44:52;;;;;;;21.50;18.60;;;22.90;51.70;;;;;;222817;1264;24172;-50
2023/12/07 04:50:00;;;;;;;21.90;18.30;;;23.00;51.30;;;;;;222860;1263;22524;-50
2023/12/07 04:55:06;;;;;;;20.60;17.90;;;23.00;51.50;;;;;;222909;1260;22517;-51
2023/12/07 05:00:11;;;;;;;20.90;18.70;;;23.10;51.90;;;;;;222755;1259;22623;-50
2023/12/07 05:05:15;;;;;;;21.50;18.10;;;23.20;51.40;;;;;;222569;1263;22517;-52
2023/12/07 05:10:20;;;;;;;20.00;17.80;;;23.30;51.60;;;;;;223094;1263;22506;-52
2023/12/07 05:15:25;;;;;;;21.30;19.00;;;23.30;51.50;;;;;;222886;1257;23961;-49
2023/12/07 05:20:30;;;;;;;20.10;18.00;;;23.10;51.20;;;;;;222644;1263;24414;-49
2023/12/07 05:25:35;;;;;;;22.10;18.80;;;23.00;51.40;;;;;;222737;1263;22536;-49
2023/12/07 05:30:40;;;;;;;21.30;18.50;;;23.00;52.30;;;;;;222641;1263;22660;-51
2023/12/07 05:35:47;;;;;;;19.10;17.10;;;22.90;51.50;;;;;;222700;1256;24195;-48
2023/12/07 05:40:52;;;;;;;20.50;18.30;;;22.80;51.10;;;;;;222526;1263;22532;-49
2023/12/07 05:45:56;;;;;;;20.70;18.40;;;22.70;51.60;;;;;;222700;1263;22577;-50
2023/12/07 05:51:05;;;;;;;21.70;19.50;;;22.70;52.00;;;;;;222596;1263;24196;-49
2023/12/07 05:56:10;;;;;;;20.40;18.30;;;22.60;51.70;;;;;;222458;1264;24217;-48
2023/12/07 06:01:17;;;;;;;20.50;17.90;;;22.50;51.90;;;;;;222767;1264;24176;-50
2023/12/07 06:06:22;;;;;;;19.80;17.60;;;22.50;52.50;;;;;;222855;1266;22524;-47
2023/12/07 06:11:27;;;;;;;19.40;17.30;;;22.60;52.20;;;;;;222875;1266;25262;-46
2023/12/07 06:16:32;;;;;;;20.80;18.50;;;22.80;51.60;;;;;;222604;1248;22508;-46
2023/12/07 06:21:36;;;;;;;20.80;17.40;;;22.90;51.10;;;;;;222759;1254;232124;-48
2023/12/07 06:26:40;;;;;;;21.80;17.70;;;23.00;50.90;;;;;;222786;1263;23777;-50
2023/12/07 06:31:45;;;;;;;19.30;17.30;;;23.10;50.70;;;;;;222663;1262;24410;-50
2023/12/07 06:36:50;;;;;;;21.10;18.90;;;23.10;50.60;;;;;;222476;1263;24196;-49
2023/12/07 06:41:55;;;;;;;19.00;16.30;;;23.10;50.50;;;;;;222298;1255;24220;-49
2023/12/07 06:47:03;;;;;;;20.00;17.80;;;23.10;50.40;;;;;;222665;1254;24152;-51
2023/12/07 06:52:11;;;;;;;20.80;17.00;;;23.10;50.60;;;;;;222750;1267;22511;-52
2023/12/07 06:57:15;;;;;;;21.70;17.20;;;23.00;51.10;;;;;;222845;1264;24404;-42
2023/12/07 07:02:19;;;;;;;20.10;17.90;;;23.00;51.00;;;;;;222570;1263;22804;-44
2023/12/07 07:07:24;;;;;;;18.60;16.60;;;22.90;51.40;;;;;;222794;1263;25423;-43
2023/12/07 07:12:29;;;;;;;18.90;16.90;;;22.90;52.00;;;;;;222579;1265;23741;-45
2023/12/07 07:17:33;;;;;;;19.20;16.60;;;22.90;51.80;;;;;;222575;1266;22536;-44
2023/12/07 07:22:38;;;;;;;19.70;17.30;;;22.90;52.50;;;;;;222517;1263;22527;-45
2023/12/07 07:27:43;;;;;;;18.60;16.50;;;22.80;51.80;;;;;;222472;1268;22514;-43
2023/12/07 07:32:48;;;;;;;22.50;16.40;;;22.90;51.70;;;;;;222543;1266;22517;-43
2023/12/07 07:37:53;;;;;;;18.50;16.50;;;22.80;52.80;;;;;;222431;1265;26513;-45
2023/12/07 07:42:58;;;;;;;20.60;16.30;;;22.90;52.20;;;;;;222634;1253;24156;-43
2023/12/07 07:48:03;;;;;;;22.10;16.40;;;22.70;53.30;;;;;;222096;1247;24259;-45
2023/12/07 07:53:07;;;;;;;20.00;15.90;;;22.70;54.00;;;;;;222839;1254;22525;-46
2023/12/07 07:58:12;;;;;;;22.60;17.20;;;22.60;54.60;;;;;;222538;1263;24261;-48
2023/12/07 08:03:16;;;;;;;25.50;17.70;;;22.70;54.00;;;;;;222191;1268;25268;-46
2023/12/07 08:08:21;;;;;;;19.40;17.00;;;22.70;54.10;;;;;;222461;1263;24312;-46
2023/12/07 08:13:25;;;;;;;21.30;18.40;;;22.80;53.70;;;;;;222459;1266;24295;-44
2023/12/07 08:18:30;;;;;;;21.80;18.30;;;22.90;52.70;;;;;;229212;1266;24203;-44
2023/12/07 08:23:35;;;;;;;22.00;17.50;;;23.30;51.70;;;;;;223729;1263;24364;-43
2023/12/07 08:28:40;;;;;;;22.40;19.10;;;23.40;51.20;;;;;;225678;1263;24255;-45
2023/12/07 08:33:45;;;;;;;21.90;19.30;;;23.40;50.70;;;;;;222778;1264;25535;-46
2023/12/07 08:38:51;;;;;;;24.00;19.80;;;23.30;51.00;;;;;;222289;1263;22682;-44
2023/12/07 08:43:55;;;;;;;21.60;19.30;;;23.10;51.10;;;;;;222953;1263;22630;-49
2023/12/07 08:48:59;;;;;;;24.50;20.20;;;23.00;51.70;;;;;;222511;1264;25356;-44
2023/12/07 08:54:05;;;;;;;25.70;19.80;;;22.90;51.60;;;;;;223082;1266;22655;-44
2023/12/07 08:59:09;;;;;;;24.10;19.90;;;22.80;51.70;;;;;;222416;1264;22531;-47
2023/12/07 09:04:15;;;;;;;22.70;19.50;;;22.70;51.50;;;;;;222602;1263;22786;-45
2023/12/07 09:09:19;;;;;;;22.20;19.60;;;22.80;51.30;;;;;;222697;1263;22800;-45
2023/12/07 09:14:26;;;;;;;24.90;19.40;;;22.80;51.20;;;;;;222597;1269;22602;-46
2023/12/07 09:19:30;;;;;;;24.10;19.80;;;22.90;51.30;;;;;;222693;1254;22573;-46
2023/12/07 09:24:35;;;;;;;23.90;19.90;;;23.10;50.10;;;;;;222733;1266;22511;-47
2023/12/07 09:29:39;;;;;;;25.00;20.10;;;23.30;49.70;;;;;;222719;1255;24468;-46
2023/12/07 09:34:44;;;;;;;23.90;20.20;;;23.40;49.60;;;;;;222670;1264;24359;-47
2023/12/07 09:39:48;;;;;;;24.90;20.20;;;23.50;49.40;;;;;;222872;1265;22516;-44
2023/12/07 09:44:54;;;;;;;25.80;21.00;;;23.50;49.50;;;;;;222832;1264;27627;-46
2023/12/07 09:49:59;;;;;;;23.60;20.40;;;23.60;49.20;;;;;;222441;1253;23012;-45
2023/12/07 09:55:04;;;;;;;26.40;20.90;;;23.40;49.20;;;;;;222658;1263;24373;-44
2023/12/07 10:00:10;;;;;;;24.60;20.60;;;23.30;49.30;;;;;;222734;1266;25284;-46
2023/12/07 10:05:16;;;;;;;23.70;20.10;;;23.20;49.80;;;;;;222615;1263;23324;-43
2023/12/07 10:10:22;;;;;;;25.00;20.90;;;23.10;50.10;;;;;;222208;1270;23015;-44
2023/12/07 10:15:28;;;;;;;24.10;20.70;;;23.00;50.20;;;;;;222083;1259;22527;-44
2023/12/07 10:20:32;;;;;;;27.30;23.40;;;23.00;50.30;;;;;;222257;1270;23011;-47
2023/12/07 10:25:38;;;;;;;28.10;22.10;;;23.00;50.20;;;;;;222227;1259;22669;-45
2023/12/07 10:30:43;;;;;;;23.80;21.10;;;23.00;49.80;;;;;;222044;1269;22651;-50
2023/12/07 10:35:48;;;;;;;24.90;20.70;;;23.20;49.50;;;;;;222221;1263;23000;-44
2023/12/07 10:41:08;;;;;;;29.30;22.00;;;23.30;49.50;;;;;;222038;1268;23933;-48
2023/12/07 10:46:16;;;;;;;27.80;23.80;;;23.40;48.40;;;;;;222262;1267;22531;-45
2023/12/07 10:51:34;;;;;;;28.70;23.60;;;23.50;48.30;;;;;;221837;1266;22522;-45
2023/12/07 10:56:43;;;;;;;24.70;21.40;;;23.60;47.90;;;;;;222327;1264;24403;-47
2023/12/07 11:01:48;;;;;;;29.40;22.80;;;23.70;47.80;;;;;;222270;1267;22556;-43
2023/12/07 11:06:57;;;;;;;25.20;21.10;;;23.60;47.50;;;;;;222080;1269;25425;-42
2023/12/07 11:12:47;;;;;;;32.90;22.90;;;23.50;48.20;;;;;;222731;1263;24193;-48
2023/12/07 11:17:54;;;;;;;29.90;23.10;;;23.50;48.10;;;;;;222757;1254;25600;-43
2023/12/07 11:22:59;;;;;;;27.80;23.90;;;23.40;48.10;;;;;;222396;1262;22596;-46
2023/12/07 11:28:05;;;;;;;28.90;23.20;;;23.40;49.50;;;;;;223012;1266;25287;-47
2023/12/07 11:33:10;;;;;;;29.80;22.90;;;23.40;48.80;;;;;;223426;1266;22526;-47
2023/12/07 11:38:18;;;;;;;33.30;24.00;;;23.20;48.50;;;;;;222859;1263;25406;-45
2023/12/07 11:43:40;;;;;;;29.20;23.60;;;23.10;49.30;;;;;;222978;1263;25500;-46
2023/12/07 11:48:49;;;;;;;26.60;23.30;;;23.00;49.40;;;;;;222865;1260;22566;-44
2023/12/07 11:53:54;;;;;;;28.10;23.80;;;22.90;49.30;;;;;;222931;1265;25380;-44
2023/12/07 11:58:59;;;;;;;39.50;23.90;;;22.80;49.60;;;;;;222792;1269;22518;-45
2023/12/07 12:04:05;;;;;;;30.60;24.20;;;22.70;49.50;;;;;;222973;1266;24364;-43
2023/12/07 12:09:13;;;;;;;30.10;23.90;;;22.70;49.70;;;;;;222690;1260;22530;-45
2023/12/07 12:14:22;;;;;;;31.30;25.40;;;22.70;49.70;;;;;;222654;1256;22522;-43
2023/12/07 12:19:27;;;;;;;31.00;24.60;;;22.90;48.80;;;;;;222568;1266;22844;-43
2023/12/07 12:24:39;;;;;;;34.20;26.80;;;23.10;48.50;;;;;;222649;1247;22780;-45
2023/12/07 12:29:44;;;;;;;44.20;26.30;;;23.30;48.30;;;;;;222979;1269;22640;-46
2023/12/07 12:34:52;;;;;;;31.30;25.60;;;23.40;48.10;;;;;;222714;1257;23422;-43
2023/12/07 12:39:57;;;;;;;32.40;24.90;;;23.50;48.70;;;;;;222737;1269;22567;-46
2023/12/07 12:45:10;;;;;;;30.30;24.60;;;23.60;49.10;;;;;;222582;1263;22531;-48
2023/12/07 12:50:36;;;;;;;35.00;25.70;;;23.60;49.50;;;;;;222639;1264;22633;-49
2023/12/07 12:55:42;;;;;;;38.30;25.80;;;23.50;50.50;;;;;;223105;1265;24252;-49
2023/12/07 13:00:47;;;;;;;34.00;26.10;;;23.40;50.90;;;;;;222938;1265;22672;-47
2023/12/07 13:05:51;;;;;;;31.40;25.10;;;23.30;51.70;;;;;;222620;1262;24174;-49
2023/12/07 13:10:56;;;;;;;34.30;26.80;;;23.20;51.90;;;;;;222160;1266;25408;-48
2023/12/07 13:16:00;;;;;;;34.50;26.30;;;23.20;52.30;;;;;;222052;1271;24249;-46
2023/12/07 13:21:05;;;;;;;31.30;25.90;;;23.10;52.70;;;;;;222203;1257;22595;-46
2023/12/07 13:26:09;;;;;;;35.20;25.20;;;23.00;53.10;;;;;;222354;1257;23067;-48
2023/12/07 13:31:14;;;;;;;33.70;25.40;;;22.90;53.40;;;;;;222204;1271;22565;-44
2023/12/07 13:36:18;;;;;;;33.60;24.40;;;22.90;53.60;;;;;;222164;1270;22516;-44
2023/12/07 13:41:25;;;;;;;32.50;24.70;;;23.10;52.70;;;;;;222082;1263;22628;-48
2023/12/07 13:46:30;;;;;;;29.30;24.60;;;23.30;52.90;;;;;;222020;1264;22653;-47
2023/12/07 13:51:34;;;;;;;28.40;23.60;;;23.40;52.50;;;;;;222139;1270;25274;-44
2023/12/07 13:56:39;;;;;;;28.20;23.70;;;23.50;52.50;;;;;;222063;1269;24253;-47
2023/12/07 14:01:43;;;;;;;30.60;24.40;;;23.60;52.30;;;;;;222046;1266;25393;-48
2023/12/07 14:06:47;;;;;;;30.60;24.60;;;23.60;52.50;;;;;;222168;1269;22655;-44
2023/12/07 14:11:51;;;;;;;29.20;24.10;;;23.60;52.40;;;;;;222610;1254;22999;-44
2023/12/07 14:16:56;;;;;;;30.20;23.80;;;23.50;52.50;;;;;;222497;1268;23220;-46
2023/12/07 14:22:14;;;;;;;28.40;23.10;;;23.40;52.80;;;;;;222413;1256;22515;-49
2023/12/07 14:27:19;;;;;;;30.90;24.30;;;23.20;53.20;;;;;;222416;1269;22579;-46
2023/12/07 14:32:24;;;;;;;30.90;24.30;;;23.10;53.90;;;;;;222918;1269;22592;-46
2023/12/07 14:37:28;;;;;;;28.90;23.40;;;23.00;53.10;;;;;;223085;1269;26201;-47
2023/12/07 14:42:33;;;;;;;27.40;23.10;;;23.00;53.30;;;;;;222735;1266;25532;-44
2023/12/07 14:47:37;;;;;;;28.00;24.20;;;23.20;53.10;;;;;;222830;1263;25399;-44
2023/12/07 14:52:41;;;;;;;30.00;23.20;;;23.40;52.70;;;;;;222464;1264;22562;-45
2023/12/07 14:57:48;;;;;;;24.60;21.90;;;23.40;52.90;;;;;;222652;1267;22537;-45
2023/12/07 15:02:52;;;;;;;28.30;22.50;;;23.40;52.40;;;;;;222983;1260;22648;-45
2023/12/07 15:07:57;;;;;;;26.70;23.10;;;23.50;52.20;;;;;;222997;1269;24193;-44
2023/12/07 15:13:01;;;;;;;25.60;21.90;;;23.60;52.10;;;;;;222113;1269;25347;-45
2023/12/07 15:18:06;;;;;;;25.70;21.90;;;23.60;51.90;;;;;;222576;1264;22524;-49
2023/12/07 15:23:10;;;;;;;27.20;22.10;;;23.40;51.50;;;;;;222653;1260;22529;-48
2023/12/07 15:28:15;;;;;;;26.80;23.00;;;23.30;52.10;;;;;;222370;1264;24223;-45
2023/12/07 15:33:19;;;;;;;27.70;22.30;;;23.10;52.20;;;;;;222519;1261;22576;-48
2023/12/07 15:38:24;;;;;;;26.30;22.90;;;23.00;52.30;;;;;;222546;1267;22640;-45
2023/12/07 15:43:30;;;;;;;24.80;22.20;;;23.10;52.30;;;;;;222803;1266;22528;-46
2023/12/07 15:48:34;;;;;;;28.60;23.20;;;23.00;51.80;;;;;;222586;1265;22540;-45
2023/12/07 15:53:38;;;;;;;26.30;23.00;;;22.90;52.30;;;;;;222763;1255;22520;-47
2023/12/07 15:58:42;;;;;;;27.40;23.00;;;23.10;52.00;;;;;;222860;1265;24349;-48
2023/12/07 16:03:47;;;;;;;28.40;22.70;;;23.20;52.10;;;;;;222568;1263;22557;-47
2023/12/07 16:08:51;;;;;;;28.70;23.30;;;23.30;52.50;;;;;;222681;1267;24364;-46
2023/12/07 16:13:56;;;;;;;24.70;21.70;;;23.60;53.80;;;;;;222743;1263;24252;-46
2023/12/07 16:19:00;;;;;;;28.80;22.50;;;23.80;55.20;;;;;;222747;1263;22663;-49
2023/12/07 16:24:05;;;;;;;30.00;24.50;;;24.00;56.50;;;;;;222517;1257;22520;-47
2023/12/07 16:29:09;;;;;;;31.30;25.90;;;24.10;57.80;;;;;;222986;1264;24244;-45
2023/12/07 16:34:14;;;;;;;31.70;25.30;;;24.10;57.60;;;;;;222400;1256;22628;-50
2023/12/07 16:39:19;;;;;;;31.20;26.30;;;24.00;58.20;;;;;;222474;1267;22537;-48
2023/12/07 16:44:25;;;;;;;33.00;25.70;;;23.90;57.80;;;;;;222775;1264;22529;-48
2023/12/07 16:49:35;;;;;;;32.10;25.70;;;23.90;57.40;;;;;;222719;1269;22647;-48
2023/12/07 16:54:43;;;;;;;33.30;28.20;;;23.90;56.80;;;;;;222308;1257;24388;-53
2023/12/07 16:59:50;;;;;;;31.20;25.60;;;23.80;57.00;;;;;;223021;1254;24313;-47
2023/12/07 17:04:56;;;;;;;32.90;25.70;;;23.90;57.00;;;;;;222291;1254;22530;-49
2023/12/07 17:10:03;;;;;;;36.80;27.40;;;23.70;57.00;;;;;;222608;1261;24166;-53
2023/12/07 17:15:13;;;;;;;34.30;26.70;;;23.60;56.80;;;;;;222859;1254;24368;-45
2023/12/07 17:20:21;;;;;;;35.30;27.10;;;23.40;56.50;;;;;;222684;1264;22534;-45
2023/12/07 17:25:28;;;;;;;32.20;27.10;;;23.30;56.80;;;;;;222900;1254;25281;-45
2023/12/07 17:30:36;;;;;;;37.50;27.50;;;23.20;56.50;;;;;;222582;1263;22517;-47
2023/12/07 17:35:43;;;;;;;31.90;26.40;;;23.00;56.90;;;;;;222705;1263;22518;-46
2023/12/07 17:40:50;;;;;;;34.10;27.00;;;23.00;56.30;;;;;;222799;1264;22650;-50
2023/12/07 17:45:58;;;;;;;34.80;26.30;;;23.20;56.50;;;;;;222604;1251;23138;-50
2023/12/07 17:51:05;;;;;;;32.00;26.80;;;23.60;55.60;;;;;;223426;1260;25349;-52
2023/12/07 17:56:14;;;;;;;32.80;25.40;;;23.80;54.80;;;;;;222945;1263;23886;-48
2023/12/07 18:01:22;;;;;;;32.50;25.90;;;24.00;54.20;;;;;;222891;1264;22520;-57
2023/12/07 18:06:31;;;;;;;32.60;25.80;;;24.00;54.40;;;;;;222469;1263;22628;-54
2023/12/07 18:11:37;;;;;;;33.70;27.40;;;23.90;54.00;;;;;;222568;1263;22751;-57
2023/12/07 18:16:46;;;;;;;33.00;26.50;;;23.70;54.00;;;;;;223043;1261;25226;-57
2023/12/07 18:21:53;;;;;;;31.50;25.70;;;23.50;54.10;;;;;;222573;1264;212177;-55
2023/12/07 18:26:58;;;;;;;37.90;27.00;;;23.40;54.10;;;;;;222722;1263;22520;-57
2023/12/07 18:32:05;;;;;;;36.90;27.40;;;23.40;54.50;;;;;;222534;1247;22520;-55
2023/12/07 18:37:13;;;;;;;34.10;26.80;;;23.30;53.80;;;;;;222333;1259;24427;-49
2023/12/07 18:42:20;;;;;;;34.30;27.60;;;23.40;53.80;;;;;;222764;1263;22590;-46
2023/12/07 18:47:26;;;;;;;35.30;27.60;;;23.40;53.70;;;;;;223032;1253;22663;-47
2023/12/07 18:52:37;;;;;;;39.30;29.30;;;23.40;53.50;;;;;;222739;1254;25309;-50
2023/12/07 18:57:45;;;;;;;36.50;28.80;;;23.40;53.20;;;;;;222672;1253;24341;-54
2023/12/07 19:02:54;;;;;;;39.10;29.80;;;23.20;53.00;;;;;;223231;1264;25329;-46
2023/12/07 19:08:05;;;;;;;38.70;30.10;;;23.10;53.20;;;;;;222767;1254;22562;-49
2023/12/07 19:13:17;;;;;;;40.10;29.90;;;23.10;52.90;;;;;;222648;1263;25282;-50
2023/12/07 19:18:24;;;;;;;35.00;27.40;;;23.10;52.70;;;;;;222745;1261;22984;-55
2023/12/07 19:23:28;;;;;;;33.60;28.50;;;23.30;52.20;;;;;;228272;1263;25420;-58
2023/12/07 19:28:33;;;;;;;37.70;28.30;;;23.50;52.00;;;;;;222695;1261;22531;-58
2023/12/07 19:33:37;;;;;;;35.60;28.90;;;23.60;52.00;;;;;;222725;1263;24336;-57
2023/12/07 19:38:42;;;;;;;35.80;28.30;;;23.60;51.60;;;;;;222950;1253;25348;-57
2023/12/07 19:43:46;;;;;;;47.70;31.80;;;23.50;51.80;;;;;;222846;1269;23464;-57
2023/12/07 19:48:50;;;;;;;38.20;29.70;;;23.50;52.40;;;;;;222401;1263;24079;-57
2023/12/07 19:53:56;;;;;;;37.30;29.70;;;23.40;52.10;;;;;;222394;1264;22519;-58
2023/12/07 19:59:01;;;;;;;35.50;29.40;;;23.30;52.20;;;;;;222667;1264;22510;-54
2023/12/07 20:04:06;;;;;;;37.40;30.30;;;23.20;52.10;;;;;;223126;1253;22567;-56
2023/12/07 20:09:15;;;;;;;36.80;30.20;;;23.20;52.00;;;;;;222691;1268;22531;-56
2023/12/07 20:14:19;;;;;;;36.70;30.80;;;23.30;53.30;;;;;;222824;1269;22518;-56
2023/12/07 20:19:24;;;;;;;42.00;32.40;;;23.20;53.30;;;;;;222789;1262;22524;-56
2023/12/07 20:24:29;;;;;;;39.40;31.10;;;23.20;53.20;;;;;;222926;1266;23878;-55
2023/12/07 20:29:34;;;;;;;42.00;32.10;;;23.20;53.30;;;;;;222636;1268;22637;-58
2023/12/07 20:34:39;;;;;;;44.80;31.00;;;23.10;53.30;;;;;;222572;1253;25615;-57
2023/12/07 20:39:45;;;;;;;41.40;30.60;;;23.00;53.80;;;;;;222705;1262;26513;-57
2023/12/07 20:44:50;;;;;;;38.30;31.20;;;23.00;53.70;;;;;;222883;1256;22515;-58
2023/12/07 20:49:54;;;;;;;44.90;32.40;;;23.40;53.30;;;;;;222841;1266;22520;-57
2023/12/07 20:55:00;;;;;;;41.20;31.30;;;23.60;53.40;;;;;;222841;1247;23944;-55
2023/12/07 21:00:06;;;;;;;40.70;30.50;;;23.70;52.40;;;;;;222981;1253;23277;-57
2023/12/07 21:05:10;;;;;;;42.80;29.40;;;23.80;52.40;;;;;;223166;1254;24370;-55
2023/12/07 21:10:15;;;;;;;37.80;30.70;;;23.70;52.40;;;;;;222173;1269;22576;-56
2023/12/07 21:15:19;;;;;;;41.50;30.00;;;23.60;53.00;;;;;;221917;1256;22745;-62
2023/12/07 21:20:24;;;;;;;38.00;29.30;;;23.60;52.80;;;;;;222058;1259;24445;-61
2023/12/07 21:25:32;;;;;;;37.20;30.00;;;23.40;53.00;;;;;;222133;1264;22633;-62
2023/12/07 21:30:40;;;;;;;37.40;30.80;;;23.30;53.10;;;;;;221909;1266;25387;-62
2023/12/07 21:35:49;;;;;;;41.60;30.00;;;23.20;53.30;;;;;;222070;1270;22623;-59
2023/12/07 21:40:58;;;;;;;39.30;28.90;;;23.10;53.50;;;;;;222323;1260;25548;-61
2023/12/07 21:46:05;;;;;;;36.60;27.50;;;23.10;53.20;;;;;;221750;1251;23671;-59
2023/12/07 21:51:13;;;;;;;40.30;27.80;;;23.10;53.30;;;;;;222147;1256;22514;-61
2023/12/07 21:56:23;;;;;;;35.10;28.40;;;23.30;60.60;;;;;;222148;1263;24331;-59
2023/12/07 22:01:34;;;;;;;36.30;30.00;;;23.60;55.70;;;;;;222217;1247;23798;-59
2023/12/07 22:06:42;;;;;;;36.90;29.00;;;23.70;53.40;;;;;;222102;1256;24259;-59
2023/12/07 22:11:50;;;;;;;37.10;28.60;;;23.70;53.20;;;;;;222442;1263;22599;-59
2023/12/07 22:16:57;;;;;;;36.40;28.80;;;23.80;53.40;;;;;;222592;1256;22520;-61
2023/12/07 22:22:03;;;;;;;36.10;27.50;;;23.90;53.60;;;;;;222327;1263;22524;-59
2023/12/07 22:27:07;;;;;;;37.70;28.40;;;23.80;53.00;;;;;;223064;1253;22625;-59
2023/12/07 22:32:12;;;;;;;35.40;28.20;;;23.90;53.10;;;;;;222456;1263;22520;-58
2023/12/07 22:37:16;;;;;;;36.50;28.50;;;23.80;53.30;;;;;;222576;1253;22591;-59
2023/12/07 22:42:22;;;;;;;33.60;27.90;;;23.70;53.10;;;;;;222971;1263;22518;-59
2023/12/07 22:47:28;;;;;;;33.60;28.00;;;23.70;52.50;;;;;;222315;1253;22584;-60
2023/12/07 22:52:33;;;;;;;38.20;29.70;;;23.70;53.30;;;;;;222786;1263;22518;-59
2023/12/07 22:57:38;;;;;;;34.80;28.30;;;23.80;53.00;;;;;;222380;1266;23886;-60
2023/12/07 23:02:42;;;;;;;35.60;28.80;;;23.70;52.60;;;;;;222443;1260;22620;-62
2023/12/07 23:07:47;;;;;;;37.80;27.80;;;23.60;52.80;;;;;;222703;1257;22534;-55
2023/12/07 23:12:51;;;;;;;34.10;27.40;;;23.40;53.60;;;;;;224231;1264;22543;-57
2023/12/07 23:17:55;;;;;;;34.30;27.40;;;23.30;54.10;;;;;;222577;1265;25354;-54
2023/12/07 23:23:01;;;;;;;30.50;25.50;;;23.50;53.30;;;;;;222699;1260;22528;-55
2023/12/07 23:28:05;;;;;;;31.10;26.70;;;23.70;53.20;;;;;;222733;1263;24237;-53
2023/12/07 23:33:10;;;;;;;31.70;26.70;;;23.90;52.50;;;;;;222794;1266;22629;-55
2023/12/07 23:38:14;;;;;;;29.30;26.10;;;23.90;52.60;;;;;;222584;1264;24406;-53
2023/12/07 23:43:18;;;;;;;30.70;26.50;;;24.00;52.10;;;;;;222496;1254;23981;-53
2023/12/07 23:48:23;;;;;;;33.90;27.90;;;24.00;52.20;;;;;;222744;1260;24252;-53
2023/12/07 23:53:27;;;;;;;30.40;25.80;;;23.90;52.20;;;;;;222449;1254;24229;-52
2023/12/07 23:58:32;;;;;;;29.90;25.90;;;23.80;52.40;;;;;;222890;1254;22577;-55
